Map

Track Data

SID SEASON NUMBER BASIN SUBBASIN NAME ISO_TIME NATURE LAT LON WMO_WIND WMO_PRES WMO_AGENCY TRACK_TYPE DIST2LAND LANDFALL IFLAG USA_AGENCY USA_ATCF_ID USA_LAT USA_LON USA_RECORD USA_STATUS USA_WIND USA_PRES USA_SSHS USA_R34_NE USA_R34_SE USA_R34_SW USA_R34_NW USA_R50_NE USA_R50_SE USA_R50_SW USA_R50_NW USA_R64_NE USA_R64_SE USA_R64_SW USA_R64_NW USA_POCI USA_ROCI USA_RMW USA_EYE TOKYO_LAT TOKYO_LON TOKYO_GRADE TOKYO_WIND TOKYO_PRES TOKYO_R50_DIR TOKYO_R50_LONG TOKYO_R50_SHORT TOKYO_R30_DIR TOKYO_R30_LONG TOKYO_R30_SHORT TOKYO_LAND CMA_LAT CMA_LON CMA_CAT CMA_WIND CMA_PRES HKO_LAT HKO_LON HKO_CAT HKO_WIND HKO_PRES NEWDELHI_LAT NEWDELHI_LON NEWDELHI_GRADE NEWDELHI_WIND NEWDELHI_PRES NEWDELHI_CI NEWDELHI_DP NEWDELHI_POCI REUNION_LAT REUNION_LON REUNION_TYPE REUNION_WIND REUNION_PRES REUNION_TNUM REUNION_CI REUNION_RMW REUNION_R34_NE REUNION_R34_SE REUNION_R34_SW REUNION_R34_NW REUNION_R50_NE REUNION_R50_SE REUNION_R50_SW REUNION_R50_NW REUNION_R64_NE REUNION_R64_SE REUNION_R64_SW REUNION_R64_NW BOM_LAT BOM_LON BOM_TYPE BOM_WIND BOM_PRES BOM_TNUM BOM_CI BOM_RMW BOM_R34_NE BOM_R34_SE BOM_R34_SW BOM_R34_NW BOM_R50_NE BOM_R50_SE BOM_R50_SW BOM_R50_NW BOM_R64_NE BOM_R64_SE BOM_R64_SW BOM_R64_NW BOM_ROCI BOM_POCI BOM_EYE BOM_POS_METHOD BOM_PRES_METHOD NADI_LAT NADI_LON NADI_CAT NADI_WIND NADI_PRES WELLINGTON_LAT WELLINGTON_LON WELLINGTON_WIND WELLINGTON_PRES DS824_LAT DS824_LON DS824_STAGE DS824_WIND DS824_PRES TD9636_LAT TD9636_LON TD9636_STAGE TD9636_WIND TD9636_PRES TD9635_LAT TD9635_LON TD9635_WIND TD9635_PRES TD9635_ROCI NEUMANN_LAT NEUMANN_LON NEUMANN_CLASS NEUMANN_WIND NEUMANN_PRES MLC_LAT MLC_LON MLC_CLASS MLC_WIND MLC_PRES USA_GUST BOM_GUST BOM_GUST_PER REUNION_GUST REUNION_GUST_PER USA_SEAHGT USA_SEARAD_NE USA_SEARAD_SE USA_SEARAD_SW USA_SEARAD_NW STORM_SPEED STORM_DIR
2006060N04141 2006 13 WP MM NOT_NAMED 2006-03-01 06:00:00 NR 3.60000 141.000 main 657 648 O_____________ jtwc_wp WP012006 3.60000 141.000 DB 15 1006 -3 5 278
2006060N04141 2006 13 WP MM NOT_NAMED 2006-03-01 09:00:00 NR 3.63502 140.740 main 644 644 P_____________ WP012006 3.63502 140.740 DB 15 1006 -3 5 281
2006060N04141 2006 13 WP MM NOT_NAMED 2006-03-01 12:00:00 NR 3.70000 140.500 main 646 642 O_____________ jtwc_wp WP012006 3.70000 140.500 DB 15 1006 -3 5 291
2006060N04141 2006 13 WP MM NOT_NAMED 2006-03-01 15:00:00 NR 3.80749 140.293 main 648 644 P_____________ WP012006 3.80749 140.293 DB 15 1006 -3 4 297
2006060N04141 2006 13 WP MM NOT_NAMED 2006-03-01 18:00:00 NR 3.90000 140.100 main 651 644 O_____________ jtwc_wp WP012006 3.90000 140.100 DB 15 1006 -3 4 283
2006060N04141 2006 13 WP MM NOT_NAMED 2006-03-01 21:00:00 NR 3.90000 139.892 main 644 638 P_____________ WP012006 3.90000 139.892 DB 15 1006 -3 4 270
2006060N04141 2006 13 WP MM NOT_NAMED 2006-03-02 00:00:00 NR 3.90000 139.700 main 638 635 O_____________ jtwc_wp WP012006 3.90000 139.700 DB 15 1006 -3 4 285
2006060N04141 2006 13 WP MM NOT_NAMED 2006-03-02 03:00:00 NR 3.99249 139.543 main 644 644 P_____________ WP012006 3.99249 139.543 DB 15 1006 -3 4 304
2006060N04141 2006 13 WP MM NOT_NAMED 2006-03-02 06:00:00 NR 4.10000 139.400 main 652 650 O_____________ jtwc_wp WP012006 4.10000 139.400 DB 15 1006 -3 3 298
2006060N04141 2006 13 WP MM NOT_NAMED 2006-03-02 09:00:00 NR 4.15000 139.242 main 659 657 P_____________ WP012006 4.15000 139.242 DB 17 1005 -3 3 289
2006060N04141 2006 13 WP MM NOT_NAMED 2006-03-02 12:00:00 NR 4.20000 139.100 main 657 656 O_____________ jtwc_wp WP012006 4.20000 139.100 DB 20 1004 -3 3 300
2006060N04141 2006 13 WP MM NOT_NAMED 2006-03-02 15:00:00 NR 4.29250 138.993 main 667 661 P_____________ WP012006 4.29250 138.993 DB 20 1004 -3 3 315
2006060N04141 2006 13 WP MM NOT_NAMED 2006-03-02 18:00:00 NR 4.40000 138.900 main 671 671 O_____________ jtwc_wp WP012006 4.40000 138.900 DB 20 1004 -3 3 316
2006060N04141 2006 13 WP MM NOT_NAMED 2006-03-02 21:00:00 NR 4.50000 138.792 main 675 670 P_____________ WP012006 4.50000 138.792 DB 20 1004 -3 3 315
2006060N04141 2006 13 WP MM NOT_NAMED 2006-03-03 00:00:00 NR 4.60000 138.700 main 680 680 O_____________ jtwc_wp WP012006 4.60000 138.700 DB 20 1004 -3 3 323
2006060N04141 2006 13 WP MM NOT_NAMED 2006-03-03 03:00:00 NR 4.70000 138.643 main 685 685 P_____________ WP012006 4.70000 138.643 DB 20 1004 -3 2 333
2006060N04141 2006 13 WP MM NOT_NAMED 2006-03-03 06:00:00 NR 4.80000 138.600 main 695 695 O_____________ jtwc_wp WP012006 4.80000 138.600 DB 20 1004 -3 2 335
2006060N04141 2006 13 WP MM NOT_NAMED 2006-03-03 09:00:00 NR 4.90000 138.550 main 705 701 P_____________ WP012006 4.90000 138.550 DB 22 1003 -3 2 333
2006060N04141 2006 13 WP MM NOT_NAMED 2006-03-03 12:00:00 NR 5.00000 138.500 main 711 711 O_____________ jtwc_wp WP012006 5.00000 138.500 DB 25 1002 -3 2 333
2006060N04141 2006 13 WP MM NOT_NAMED 2006-03-03 15:00:00 NR 5.10000 138.450 main 721 717 P_____________ WP012006 5.10000 138.450 DB 25 1002 -3 2 333
2006060N04141 2006 13 WP MM NOT_NAMED 2006-03-03 18:00:00 NR 5.20000 138.400 main 727 727 O_____________ jtwc_wp WP012006 5.20000 138.400 DB 25 1002 -3 1005 150 40 2 329
2006060N04141 2006 13 WP MM NOT_NAMED 2006-03-03 21:00:00 NR 5.28500 138.335 main 733 733 P_____________ WP012006 5.28500 138.335 DB 27 1001 -3 1006 135 40 2 333
2006060N04141 2006 13 WP MM NOT_NAMED 2006-03-04 00:00:00 TS 5.40000 138.300 main 744 744 O_____________ jtwc_wp WP012006 5.40000 138.300 TD 30 1000 -1 1007 120 40 3 3
2006060N04141 2006 13 WP MM NOT_NAMED 2006-03-04 03:00:00 TS 5.57000 138.335 main 765 754 P_____________ WP012006 5.57000 138.335 TD 32 998 -1 1006 120 40 1 27
2006060N04141 2006 13 WP MM NOT_NAMED 2006-03-04 06:00:00 TS 5.51667 138.350 main 754 754 O_OO__________ jtwc_wp WP012006 5.80000 138.400 TS 35 997 0 1006 120 40 5.00000 138.300 1 29 1000 4.90000 138.200 TD 25 1002 1 330
2006060N04141 2006 13 WP MM NOT_NAMED 2006-03-04 09:00:00 TS 5.63876 138.298 main 765 765 P_PP__________ WP012006 6.10000 138.457 TS 35 997 0 1006 120 40 5.17003 138.128 1 29 1000 5.18501 138.148 TD 27 1001 4 341
2006060N04141 2006 13 WP MM NOT_NAMED 2006-03-04 12:00:00 TS 5.86000 138.230 main 793 793 O_OO__________ jtwc_wp WP012006 6.40000 138.500 TS 35 997 0 1006 120 40 5.50000 138.000 1 29 1000 5.50000 138.100 TD 30 1000 6 347
2006060N04141 2006 13 WP MM NOT_NAMED 2006-03-04 15:00:00 TS 6.18416 138.174 main 825 825 P_PP__________ WP012006 6.62999 138.523 TS 35 997 0 1006 160 40 6.06499 137.942 1 29 1000 5.85750 138.057 TD 30 1000 7 352
2006060N04141 2006 13 WP MM NOT_NAMED 2006-03-04 18:00:00 TS 6.53333 138.133 main 853 853 O_OO__________ jtwc_wp WP012006 6.80000 138.500 TS 35 997 0 1007 200 40 6.60000 137.900 1 29 1000 6.20000 138.000 TD 30 1000 6 348
2006060N04141 2006 13 WP MM NOT_NAMED 2006-03-04 21:00:00 TS 6.73999 138.048 main 871 871 P_PP__________ WP012006 6.93000 138.423 TS 35 997 0 1007 200 40 6.80999 137.807 1 29 1000 6.47999 137.915 TD 30 1000 4 329
2006060N04141 2006 13 WP MM NOT_NAMED 2006-03-05 00:00:00 TS 6.86667 137.933 main 889 886 O_OO__________ jtwc_wp WP012006 7.00000 138.300 TS 35 997 0 1007 200 40 6.90000 137.700 1 29 1000 6.70000 137.800 TD 30 1000 4 314
2006060N04141 2006 13 WP MM NOT_NAMED 2006-03-05 03:00:00 TS 6.99167 137.785 main 896 893 P_PP__________ WP012006 7.02999 138.165 TS 35 997 0 1007 200 40 7.05000 137.585 1 29 1000 6.89501 137.605 TD 30 1000 3 307
2006060N04141 2006 13 WP MM NOT_NAMED 2006-03-05 06:00:00 TS 7.06667 137.667 main 904 901 O_OO__________ jtwc_wp WP012006 7.00000 138.000 TS 35 997 0 1007 200 40 7.20000 137.500 1 29 1000 7.00000 137.500 TD 30 1000 2 313
2006060N04141 2006 13 WP MM NOT_NAMED 2006-03-05 09:00:00 TS 7.12917 137.634 main 901 901 P_PP__________ WP012006 6.94501 137.800 TS 35 997 0 1007 200 40 7.43996 137.440 1 29 1000 7.00253 137.662 TD 30 1000 0 0
2006060N04141 2006 13 WP MM NOT_NAMED 2006-03-05 12:00:00 TS 7.06667 137.667 main 904 875 O_OO__________ jtwc_wp WP012006 6.80000 137.600 TS 35 997 0 1007 200 40 7.50000 137.500 1 29 1000 6.90000 137.900 TD 30 1000 3 152
2006060N04141 2006 13 WP MM NOT_NAMED 2006-03-05 15:00:00 TS 6.83000 137.793 main 875 843 P_PP__________ WP012006 6.55247 137.450 TS 30 999 -1 7.17756 137.860 1 26 1001 6.75997 138.068 TD 27 1001 7 166
2006060N04141 2006 13 WP MM NOT_NAMED 2006-03-05 18:00:00 TS 6.43333 137.833 main 832 772 O_OO__________ jtwc_wp WP012006 6.20000 137.300 TD 25 1002 -1 6.60000 138.100 1 23 1002 6.50000 138.100 TD 25 1002 9 191
2006060N04141 2006 13 WP MM NOT_NAMED 2006-03-05 21:00:00 TS 5.91000 137.620 main 772 709 P_PP__________ WP012006 5.75747 137.130 TD 25 1002 -1 5.87758 137.797 1 23 1002 6.09496 137.932 TD 25 1002 12 208
2006060N04141 2006 13 WP MM NOT_NAMED 2006-03-06 00:00:00 TS 5.36667 137.267 main 709 643 O_OO__________ jtwc_wp WP012006 5.30000 136.900 TD 25 1002 -1 5.20000 137.300 1 23 1002 5.60000 137.600 TD 25 1002 12 216
2006060N04141 2006 13 WP MM NOT_NAMED 2006-03-06 03:00:00 TS 4.92833 136.906 main 643 602 P_PP__________ WP012006 4.91253 136.565 TD 25 1002 -1 4.80995 136.965 1 23 1002 5.06251 137.187 TD 25 1002 11 225
2006060N04141 2006 13 WP MM NOT_NAMED 2006-03-06 06:00:00 TS 4.60000 136.500 main 602 574 O_OO__________ jtwc_wp WP012006 4.60000 136.200 TD 25 1002 -1 1008 190 40 4.60000 136.600 1 23 1002 4.60000 136.700 TD 25 1002 10 237
2006060N04141 2006 13 WP MM NOT_NAMED 2006-03-06 09:00:00 TS 4.38586 136.057 main 574 560 P_PP__________ WP012006 4.35498 135.893 TD 25 1002 -1 1008 182 40 4.47006 136.093 1 23 1002 4.33253 136.185 TD 25 1002 9 249
2006060N04141 2006 13 WP MM NOT_NAMED 2006-03-06 12:00:00 TS 4.26667 135.633 main 560 549 O_OO__________ jtwc_wp WP012006 4.20000 135.600 TD 25 1002 -1 1008 175 40 4.40000 135.600 1 23 1002 4.20000 135.700 TD 25 1002 8 255
2006060N04141 2006 13 WP MM NOT_NAMED 2006-03-06 15:00:00 TS 4.18495 135.304 main 549 539 P_PP__________ WP012006 4.12749 135.300 TD 25 1002 -1 1008 175 40 4.29244 135.270 1 23 1002 4.13493 135.343 TD 25 1002 6 258
2006060N04141 2006 13 WP MM NOT_NAMED 2006-03-06 18:00:00 TS 4.13000 135.000 main 540 538 O_OO__________ jtwc_wp WP012006 4.10000 135.000 TD 25 1002 -1 1008 175 40 4.20000 135.000 1 23 1002 4.10000 135.000 TD 25 1002 7 259
2006060N04141 2006 13 WP MM NOT_NAMED 2006-03-06 21:00:00 TS 4.05687 134.646 main 534 510 P_PP__________ WP012006 4.05752 134.700 TD 22 1003 -1 4.14004 134.710 1 23 1003 4.01496 134.588 TD 25 1002 8 257
2006060N04141 2006 13 WP MM NOT_NAMED 2006-03-07 00:00:00 TS 3.95000 134.200 main 510 464 O_OO__________ jtwc_wp WP012006 4.00000 134.400 DB 20 1004 -3 4.10000 134.400 1 23 1004 3.90000 134.100 TD 25 1002 11 253
2006060N04141 2006 13 WP MM NOT_NAMED 2006-03-07 03:00:00 NR 3.73487 133.575 main 464 448 ___P__________ WP012006 DB -3 1 3.73487 133.575 TD 25 1002 13 255
2006060N04141 2006 13 WP MM NOT_NAMED 2006-03-07 06:00:00 NR 3.60000 132.900 main 448 397 ___O__________ 3.60000 132.900 TD 25 1002 16 264
2006060N04141 2006 13 WP MM NOT_NAMED 2006-03-07 09:00:00 NR 3.56780 132.013 main 386 293 ___P__________ 3.56780 132.013 TD 25 1002 19 270
2006060N04141 2006 13 WP MM NOT_NAMED 2006-03-07 12:00:00 NR 3.60000 131.000 main 283 ___O__________ 3.60000 131.000 TD 25 1002 20 272

Digital Typhoon Data and Search

About IBTrACS Database

This database is a web-friendly format of International Best Track Archive for Climate Stewardship (IBTrACS), a global best track data archive curated by NOAA dating back to 1842.

Updated: 2021-11-26